Time;durP1;ratioP1;P1;durP2;ratioP2;P2;SDS_P1;SDS_P2;PMS_P1;PMS_P2;Temp;Humidity;BMP_temperature;BMP_pressure;BME280_temperature;BME280_humidity;BME280_pressure;Samples;Min_cycle;Max_cycle;Signal;HPM_P1;HPM_P2
2023/12/23 00:01:34;;;;;;;13.50;4.03;;;;;;;5.43;69.32;100354.28;7390683;19;20034;-60
2023/12/23 00:04:03;;;;;;;14.93;4.00;;;;;;;5.52;69.07;100350.28;7389086;19;20501;-60
2023/12/23 00:06:30;;;;;;;14.05;4.40;;;;;;;5.53;69.03;100363.34;7389620;19;20483;-60
2023/12/23 00:08:58;;;;;;;17.48;3.67;;;;;;;5.54;69.26;100370.25;7386333;19;20019;-60
2023/12/23 00:11:26;;;;;;;18.40;3.72;;;;;;;5.51;69.60;100375.69;7396754;19;20023;-60
2023/12/23 00:13:54;;;;;;;15.10;2.75;;;;;;;5.48;69.68;100391.63;7397350;19;20358;-60
2023/12/23 00:16:24;;;;;;;12.68;2.50;;;;;;;5.53;70.07;100389.59;7397575;19;20372;-60
2023/12/23 00:18:52;;;;;;;10.40;2.40;;;;;;;5.46;70.57;100400.53;7395382;19;20042;-60
2023/12/23 00:21:20;;;;;;;10.90;2.10;;;;;;;5.41;70.85;100397.31;7397093;19;20018;-59
2023/12/23 00:23:48;;;;;;;11.25;1.90;;;;;;;5.54;70.79;100403.56;7397391;19;20018;-61
2023/12/23 00:26:16;;;;;;;11.93;2.22;;;;;;;5.44;70.62;100398.00;7394418;19;20014;-60
2023/12/23 00:28:44;;;;;;;11.10;1.90;;;;;;;5.40;71.08;100401.72;7395749;19;20023;-61
2023/12/23 00:31:11;;;;;;;8.68;1.77;;;;;;;5.36;71.36;100415.97;7397247;19;20344;-60
2023/12/23 00:33:39;;;;;;;14.43;2.42;;;;;;;5.29;71.69;100404.13;7396745;19;20022;-61
2023/12/23 00:36:07;;;;;;;16.85;2.47;;;;;;;5.43;71.79;100404.19;7396586;19;20039;-60
2023/12/23 00:38:35;;;;;;;9.18;1.92;;;;;;;5.32;72.53;100419.72;7395183;19;20023;-60
2023/12/23 00:41:03;;;;;;;10.45;2.00;;;;;;;5.13;73.23;100412.03;7396848;19;20023;-59
2023/12/23 00:43:31;;;;;;;16.02;2.47;;;;;;;5.09;72.99;100421.84;7396612;19;20348;-60
2023/12/23 00:45:59;;;;;;;10.95;1.88;;;;;;;5.09;72.98;100413.97;7394341;19;20475;-59
2023/12/23 00:48:28;;;;;;;9.85;1.95;;;;;;;5.11;72.50;100401.63;7394787;19;20395;-58
2023/12/23 00:50:56;;;;;;;10.55;2.28;;;;;;;5.18;72.94;100401.25;7397937;19;20391;-60
2023/12/23 00:53:25;;;;;;;11.70;2.33;;;;;;;5.19;72.86;100406.44;7400439;19;20022;-60
2023/12/23 00:55:53;;;;;;;12.38;2.88;;;;;;;5.21;72.71;100401.94;7399467;19;20487;-60
2023/12/23 00:58:21;;;;;;;17.90;4.05;;;;;;;5.24;72.59;100403.56;7395342;19;20022;-59
2023/12/23 01:00:49;;;;;;;17.42;4.25;;;;;;;5.33;72.42;100416.97;7395712;19;20038;-60
2023/12/23 01:03:17;;;;;;;17.38;4.05;;;;;;;5.36;71.33;100416.81;7394999;19;20042;-60
2023/12/23 01:05:45;;;;;;;17.13;3.42;;;;;;;5.33;70.97;100406.47;7393846;19;20369;-60
2023/12/23 01:08:13;;;;;;;13.55;2.83;;;;;;;5.37;71.08;100413.25;7395051;19;20022;-60
2023/12/23 01:10:41;;;;;;;12.23;2.95;;;;;;;5.40;71.05;100412.22;7395388;19;20486;-60
2023/12/23 01:13:09;;;;;;;12.50;2.83;;;;;;;5.36;70.98;100398.44;7395580;19;20054;-60
2023/12/23 01:15:36;;;;;;;14.02;3.00;;;;;;;5.42;70.78;100394.63;7394976;19;20503;-58
2023/12/23 01:18:04;;;;;;;16.38;2.83;;;;;;;5.42;70.71;100399.00;7394877;19;20034;-60
2023/12/23 01:20:33;;;;;;;13.63;3.10;;;;;;;5.39;70.55;100397.41;7395144;19;20322;-57
2023/12/23 01:23:00;;;;;;;12.88;2.92;;;;;;;5.46;70.27;100395.28;7395057;19;20014;-60
2023/12/23 01:25:29;;;;;;;17.45;2.85;;;;;;;5.51;70.09;100394.06;7393417;19;20029;-60
2023/12/23 01:28:00;;;;;;;14.23;2.85;;;;;;;5.56;69.22;100386.75;7394153;19;20019;-57
2023/12/23 01:30:29;;;;;;;16.88;3.10;;;;;;;5.56;68.54;100381.50;7390319;19;20085;-58
2023/12/23 01:32:56;;;;;;;15.20;3.08;;;;;;;5.56;68.57;100373.63;7393756;19;20019;-60
2023/12/23 01:35:24;;;;;;;16.60;2.88;;;;;;;5.66;68.63;100373.09;7392623;19;20038;-60
2023/12/23 01:37:53;;;;;;;14.00;3.40;;;;;;;5.68;69.05;100386.97;7392890;19;20014;-57
2023/12/23 01:40:25;;;;;;;11.88;2.35;;;;;;;5.55;69.66;100371.94;7388619;19;20018;-59
2023/12/23 01:42:53;;;;;;;9.70;2.08;;;;;;;5.49;70.08;100379.34;7394040;19;20014;-60
2023/12/23 01:45:21;;;;;;;14.05;1.98;;;;;;;5.54;70.70;100380.78;7393440;19;20014;-60
2023/12/23 01:47:51;;;;;;;13.20;2.35;;;;;;;5.61;70.92;100381.25;7392381;19;20389;-60
2023/12/23 01:50:22;;;;;;;12.90;2.20;;;;;;;5.65;70.81;100377.50;7391040;19;20401;-60
2023/12/23 01:52:54;;;;;;;13.75;2.13;;;;;;;5.61;71.27;100376.00;7393787;19;20019;-60
2023/12/23 01:55:26;;;;;;;10.65;2.25;;;;;;;5.56;71.48;100378.03;7393425;19;20042;-60
2023/12/23 01:57:54;;;;;;;12.50;2.22;;;;;;;5.58;71.51;100371.78;7391850;19;20105;-59
2023/12/23 02:00:22;;;;;;;14.80;2.17;;;;;;;5.70;71.38;100393.84;7391402;19;20019;-60
2023/12/23 02:02:50;;;;;;;11.32;2.33;;;;;;;5.77;71.23;100391.69;7393873;19;20022;-59
2023/12/23 02:05:19;;;;;;;11.32;2.40;;;;;;;5.76;71.36;100393.50;7392415;19;20434;-60
2023/12/23 02:07:49;;;;;;;14.23;1.90;;;;;;;5.74;71.27;100392.72;7393099;19;20493;-60
2023/12/23 02:10:17;;;;;;;11.63;2.50;;;;;;;5.75;71.18;100393.56;7389506;19;20025;-59
2023/12/23 02:13:21;;;;;;;11.57;1.90;;;;;;;5.79;70.92;100390.66;7391801;19;20029;-60
2023/12/23 02:15:51;;;;;;;13.65;2.33;;;;;;;5.68;71.46;100392.22;7391284;19;20015;-60
2023/12/23 02:18:19;;;;;;;14.70;2.60;;;;;;;5.74;71.70;100405.00;7392660;19;20022;-60
2023/12/23 02:20:49;;;;;;;12.57;2.08;;;;;;;5.77;71.98;100399.59;7393593;19;20018;-61
2023/12/23 02:23:18;;;;;;;15.13;2.22;;;;;;;5.75;71.86;100399.66;7392587;19;20019;-60
2023/12/23 02:25:54;;;;;;;11.52;1.90;;;;;;;5.72;72.22;100397.19;7391763;19;20014;-60
2023/12/23 02:28:22;;;;;;;14.77;2.00;;;;;;;5.73;72.29;100398.06;7391768;19;20022;-59
2023/12/23 02:30:52;;;;;;;14.45;2.20;;;;;;;5.74;72.26;100405.84;7392093;19;20035;-60
2023/12/23 02:33:20;;;;;;;13.65;1.90;;;;;;;5.83;71.70;100388.69;7391266;19;20021;-60
2023/12/23 02:35:52;;;;;;;14.57;2.15;;;;;;;5.75;72.38;100396.19;7392797;19;20035;-60
2023/12/23 02:38:21;;;;;;;15.70;2.33;;;;;;;5.71;72.61;100392.06;7391880;19;20078;-60
2023/12/23 02:40:49;;;;;;;13.00;2.13;;;;;;;5.90;71.93;100403.16;7390729;19;20142;-60
2023/12/23 02:43:17;;;;;;;14.10;2.70;;;;;;;5.85;72.52;100408.69;7392414;19;20014;-60
2023/12/23 02:45:45;;;;;;;12.75;2.40;;;;;;;5.84;72.73;100403.53;7391547;19;20050;-60
2023/12/23 02:48:13;;;;;;;11.77;2.00;;;;;;;5.89;72.99;100405.88;7390091;19;20015;-60
2023/12/23 02:50:41;;;;;;;11.80;1.88;;;;;;;5.85;72.77;100405.22;7392206;19;20023;-60
2023/12/23 02:53:09;;;;;;;12.23;2.00;;;;;;;5.83;73.41;100404.44;7390817;19;20029;-60
2023/12/23 02:55:37;;;;;;;10.45;1.95;;;;;;;5.89;73.47;100408.50;7391824;19;20039;-60
2023/12/23 02:58:05;;;;;;;16.42;2.35;;;;;;;5.86;73.46;100394.59;7391384;19;20487;-60
2023/12/23 03:00:33;;;;;;;10.50;2.25;;;;;;;5.86;73.94;100399.03;7391491;19;20015;-60
2023/12/23 03:03:01;;;;;;;11.77;1.83;;;;;;;5.80;74.08;100395.00;7391790;19;20025;-60
2023/12/23 03:05:29;;;;;;;10.68;1.83;;;;;;;5.86;74.07;100407.75;7390994;19;20038;-60
2023/12/23 03:07:57;;;;;;;11.93;2.33;;;;;;;5.85;74.00;100399.97;7390260;19;20387;-59
2023/12/23 03:10:25;;;;;;;9.30;2.17;;;;;;;5.85;74.39;100400.81;7389366;19;20494;-60
2023/12/23 03:12:53;;;;;;;10.52;1.83;;;;;;;5.87;74.17;100400.69;7389636;19;20039;-58
2023/12/23 03:15:20;;;;;;;11.57;1.90;;;;;;;5.89;74.56;100401.47;7389244;19;20015;-58
2023/12/23 03:17:48;;;;;;;11.20;1.80;;;;;;;5.85;74.51;100408.69;7389080;19;20019;-59
2023/12/23 03:20:16;;;;;;;11.35;2.10;;;;;;;5.90;75.01;100418.91;7387590;19;20010;-57
2023/12/23 03:22:44;;;;;;;13.57;1.90;;;;;;;5.81;75.28;100404.56;7390707;19;20019;-55
2023/12/23 03:25:12;;;;;;;11.23;1.77;;;;;;;5.83;75.73;100417.59;7389523;19;20075;-60
2023/12/23 03:27:40;;;;;;;9.85;1.75;;;;;;;5.79;76.04;100411.66;7390116;19;20042;-60
2023/12/23 03:30:08;;;;;;;12.98;2.10;;;;;;;5.78;76.15;100417.88;7388732;19;20582;-60
2023/12/23 03:32:36;;;;;;;8.98;1.80;;;;;;;5.75;76.23;100411.94;7390924;19;20026;-60
2023/12/23 03:35:04;;;;;;;12.68;2.20;;;;;;;5.77;76.56;100412.72;7389258;19;20029;-59
2023/12/23 03:37:32;;;;;;;8.73;1.92;;;;;;;5.79;76.39;100403.78;7391148;19;20014;-59
2023/12/23 03:40:00;;;;;;;10.60;2.03;;;;;;;5.76;76.95;100395.25;7388565;19;20022;-59
2023/12/23 03:42:29;;;;;;;7.80;1.60;;;;;;;5.81;76.80;100396.69;7390295;19;20049;-60
2023/12/23 03:44:57;;;;;;;13.40;1.95;;;;;;;5.80;77.21;100388.88;7392722;19;20474;-59
2023/12/23 03:47:25;;;;;;;13.35;2.03;;;;;;;5.81;77.36;100388.78;7393791;19;20026;-60
2023/12/23 03:49:53;;;;;;;11.27;1.85;;;;;;;5.80;77.55;100380.97;7394960;19;20030;-60
2023/12/23 03:52:21;;;;;;;13.23;2.60;;;;;;;5.84;77.59;100388.63;7396813;19;20018;-60
2023/12/23 03:54:48;;;;;;;15.40;2.13;;;;;;;5.81;77.56;100383.53;7397647;19;20224;-60
2023/12/23 03:57:16;;;;;;;12.25;1.80;;;;;;;5.84;77.67;100386.00;7397802;19;20022;-59
2023/12/23 03:59:44;;;;;;;14.27;1.98;;;;;;;5.86;77.68;100378.00;7395121;19;20542;-60
2023/12/23 04:02:12;;;;;;;14.68;2.38;;;;;;;5.77;78.13;100362.81;7395959;19;20015;-60
2023/12/23 04:04:40;;;;;;;14.18;2.30;;;;;;;5.77;78.48;100368.91;7397969;19;20026;-60
2023/12/23 04:07:08;;;;;;;11.38;1.98;;;;;;;5.80;78.82;100365.22;7394913;19;20022;-60
2023/12/23 04:09:36;;;;;;;8.98;1.75;;;;;;;5.83;78.64;100372.94;7395023;19;20361;-60
2023/12/23 04:12:04;;;;;;;9.63;2.17;;;;;;;5.91;78.81;100373.31;7397523;19;20512;-60
2023/12/23 04:14:34;;;;;;;13.93;2.40;;;;;;;5.85;78.50;100373.69;7395561;19;20047;-60
2023/12/23 04:17:01;;;;;;;16.42;2.25;;;;;;;5.78;78.99;100370.56;7397134;19;20026;-60
2023/12/23 04:19:29;;;;;;;11.13;2.20;;;;;;;5.76;79.30;100374.22;7395116;19;20022;-60
2023/12/23 04:21:58;;;;;;;15.75;2.20;;;;;;;5.81;79.69;100380.06;7396843;19;20033;-60
2023/12/23 04:24:26;;;;;;;11.35;1.92;;;;;;;5.84;79.46;100374.63;7395803;19;20021;-60
2023/12/23 04:26:54;;;;;;;13.77;2.53;;;;;;;5.85;79.35;100366.66;7395337;19;20022;-60
2023/12/23 04:29:22;;;;;;;14.32;2.40;;;;;;;5.81;79.64;100375.66;7394306;19;20018;-60
2023/12/23 04:31:50;;;;;;;9.88;2.22;;;;;;;5.80;79.54;100365.22;7395210;19;20018;-61
2023/12/23 04:34:18;;;;;;;10.30;2.00;;;;;;;5.86;79.59;100364.88;7396803;19;20018;-59
2023/12/23 04:36:46;;;;;;;11.27;2.50;;;;;;;5.83;79.53;100362.41;7396336;19;20018;-60
2023/12/23 04:39:14;;;;;;;13.18;2.72;;;;;;;5.84;79.44;100369.38;7395064;19;20089;-60
2023/12/23 04:41:47;;;;;;;12.52;2.70;;;;;;;5.80;79.72;100362.59;7396754;19;20029;-60
2023/12/23 04:44:15;;;;;;;11.02;2.63;;;;;;;5.76;79.71;100358.47;7396106;19;20510;-60
2023/12/23 04:46:46;;;;;;;10.60;2.50;;;;;;;5.77;79.55;100358.38;7394366;19;20043;-60
2023/12/23 04:49:13;;;;;;;8.70;2.40;;;;;;;5.76;79.55;100350.56;7394015;19;20487;-60
2023/12/23 04:51:44;;;;;;;8.32;2.28;;;;;;;5.90;79.08;100347.13;7395877;19;20018;-60
2023/12/23 04:54:13;;;;;;;8.32;2.10;;;;;;;5.86;78.83;100349.09;7394359;19;20026;-60
2023/12/23 04:56:40;;;;;;;9.45;2.30;;;;;;;5.81;78.92;100346.75;7392709;19;20018;-60
2023/12/23 04:59:08;;;;;;;10.68;2.38;;;;;;;5.80;79.05;100339.81;7393803;19;20321;-60
2023/12/23 05:01:36;;;;;;;12.57;2.42;;;;;;;5.86;79.32;100328.91;7395471;19;20377;-60
2023/12/23 05:04:04;;;;;;;11.90;2.22;;;;;;;5.84;79.49;100328.19;7394222;19;20021;-60
2023/12/23 05:06:32;;;;;;;7.75;2.00;;;;;;;5.89;79.71;100333.16;7394541;19;20011;-60
2023/12/23 05:09:00;;;;;;;11.63;2.30;;;;;;;5.92;79.62;100321.63;7397194;19;20026;-60
2023/12/23 05:11:28;;;;;;;7.82;1.70;;;;;;;5.88;79.93;100307.81;7397578;19;20086;-60
2023/12/23 05:13:56;;;;;;;11.73;1.95;;;;;;;5.87;80.30;100314.00;7393858;19;20449;-60
2023/12/23 05:16:25;;;;;;;10.07;1.95;;;;;;;5.86;80.13;100314.94;7395497;19;20021;-60
2023/12/23 05:18:52;;;;;;;11.80;1.95;;;;;;;5.88;80.06;100305.19;7393449;19;20078;-58
2023/12/23 05:21:21;;;;;;;11.25;2.10;;;;;;;5.92;80.16;100297.97;7394976;19;20011;-58
2023/12/23 05:23:49;;;;;;;12.88;2.13;;;;;;;5.90;79.79;100294.56;7393472;19;20018;-58
2023/12/23 05:26:19;;;;;;;12.35;2.70;;;;;;;6.00;79.38;100298.38;7394765;19;20061;-60
2023/12/23 05:28:48;;;;;;;14.75;2.78;;;;;;;5.90;79.46;100284.06;7393757;19;20018;-60
2023/12/23 05:31:16;;;;;;;10.43;2.40;;;;;;;5.85;79.59;100281.72;7393372;19;20030;-59
2023/12/23 05:33:44;;;;;;;9.82;2.05;;;;;;;5.88;79.69;100284.16;7393155;19;20380;-60
2023/12/23 05:36:11;;;;;;;11.57;2.10;;;;;;;5.92;79.82;100279.56;7394223;19;20021;-58
2023/12/23 05:38:39;;;;;;;11.38;1.85;;;;;;;5.96;79.78;100273.22;7393616;19;20042;-59
2023/12/23 05:41:08;;;;;;;10.32;1.58;;;;;;;5.97;79.86;100267.84;7394024;19;20486;-59
2023/12/23 05:43:36;;;;;;;9.75;1.60;;;;;;;5.99;80.24;100278.25;7394480;19;20039;-60
2023/12/23 05:46:04;;;;;;;9.68;1.60;;;;;;;5.93;80.48;100274.25;7397798;19;20022;-59
2023/12/23 05:48:32;;;;;;;8.75;1.67;;;;;;;5.92;80.84;100269.94;7392713;19;20022;-60
2023/12/23 05:51:00;;;;;;;8.95;1.48;;;;;;;5.94;81.11;100264.56;7394270;19;20015;-60
2023/12/23 05:53:28;;;;;;;11.05;2.05;;;;;;;5.95;81.05;100263.63;7394161;19;20015;-60
2023/12/23 05:55:56;;;;;;;9.95;1.70;;;;;;;5.95;81.39;100251.31;7394188;19;20534;-60
2023/12/23 05:58:24;;;;;;;9.43;1.60;;;;;;;5.97;81.20;100248.63;7391331;19;20036;-59
2023/12/23 06:00:52;;;;;;;8.40;1.67;;;;;;;5.98;81.37;100256.41;7394305;19;20022;-60
2023/12/23 06:03:20;;;;;;;7.93;1.60;;;;;;;5.98;81.16;100251.13;7393615;19;20010;-59
2023/12/23 06:05:48;;;;;;;7.60;1.67;;;;;;;5.84;81.56;100248.53;7392313;19;20082;-60
2023/12/23 06:08:16;;;;;;;10.57;1.60;;;;;;;5.89;81.83;100245.59;7388780;19;20337;-60
2023/12/23 06:10:44;;;;;;;9.55;1.58;;;;;;;5.94;81.34;100239.13;7393573;19;20028;-60
2023/12/23 06:13:25;;;;;;;7.85;1.10;;;;;;;5.94;81.69;100235.66;7392168;19;20038;-60
2023/12/23 06:15:53;;;;;;;7.25;1.50;;;;;;;5.95;81.55;100222.41;7391765;19;20498;-60
2023/12/23 06:18:22;;;;;;;8.63;1.52;;;;;;;5.90;81.77;100226.25;7392140;19;20039;-60
2023/12/23 06:20:50;;;;;;;7.22;1.33;;;;;;;5.94;81.74;100223.38;7393574;19;20498;-60
2023/12/23 06:23:18;;;;;;;10.27;1.45;;;;;;;6.01;81.38;100227.28;7393029;19;20089;-60
2023/12/23 06:25:45;;;;;;;8.38;1.30;;;;;;;5.98;81.45;100222.22;7392449;19;20039;-60
2023/12/23 06:28:13;;;;;;;7.70;1.65;;;;;;;5.95;81.40;100213.69;7390366;19;20387;-60
2023/12/23 06:30:42;;;;;;;7.85;1.35;;;;;;;5.99;81.51;100226.56;7392878;19;20026;-60
2023/12/23 06:33:09;;;;;;;7.30;1.27;;;;;;;5.95;81.59;100214.53;7392868;19;20018;-60
2023/12/23 06:35:37;;;;;;;7.68;1.50;;;;;;;5.95;82.07;100218.94;7392981;19;20363;-60
2023/12/23 06:38:05;;;;;;;4.70;1.17;;;;;;;5.83;82.29;100210.88;7392933;19;20022;-60
2023/12/23 06:40:33;;;;;;;6.38;1.45;;;;;;;5.92;81.89;100201.63;7391942;19;20518;-60
2023/12/23 06:43:01;;;;;;;6.15;1.27;;;;;;;5.95;81.84;100206.66;7392537;19;20046;-60
2023/12/23 06:45:49;;;;;;;7.18;1.42;;;;;;;5.93;82.08;100205.91;7392408;19;20025;-60
2023/12/23 06:48:17;;;;;;;8.15;1.63;;;;;;;5.90;81.79;100200.81;7389780;19;20023;-60
2023/12/23 06:50:45;;;;;;;4.47;1.15;;;;;;;5.91;81.95;100194.63;7390634;19;20068;-60
2023/12/23 06:53:13;;;;;;;3.75;1.00;;;;;;;5.94;81.93;100199.72;7392467;19;20022;-60
2023/12/23 06:55:41;;;;;;;6.25;1.15;;;;;;;5.90;82.08;100200.81;7391670;19;20014;-61
2023/12/23 06:58:09;;;;;;;5.72;1.10;;;;;;;5.90;82.08;100202.59;7391518;19;20511;-60
2023/12/23 07:00:37;;;;;;;5.07;1.40;;;;;;;5.82;82.26;100200.47;7391860;19;20022;-61
2023/12/23 07:03:06;;;;;;;7.32;1.40;;;;;;;5.78;82.23;100188.47;7390456;19;20022;-60
2023/12/23 07:05:34;;;;;;;5.05;0.82;;;;;;;5.80;82.35;100197.06;7391811;19;20042;-61
2023/12/23 07:08:03;;;;;;;4.90;0.80;;;;;;;5.87;81.96;100201.84;7390807;19;20014;-60
2023/12/23 07:10:33;;;;;;;5.32;1.08;;;;;;;5.83;82.51;100199.50;7391676;19;20033;-61
2023/12/23 07:13:01;;;;;;;6.03;0.90;;;;;;;5.81;82.70;100199.63;7392284;19;20082;-61
2023/12/23 07:15:29;;;;;;;4.65;0.95;;;;;;;5.82;82.78;100201.31;7390268;19;20022;-61
2023/12/23 07:17:57;;;;;;;5.32;1.20;;;;;;;5.86;82.90;100200.16;7391886;19;20023;-60
2023/12/23 07:20:25;;;;;;;5.43;0.85;;;;;;;5.74;83.31;100197.47;7388624;19;20055;-61
2023/12/23 07:22:53;;;;;;;5.88;0.90;;;;;;;5.79;83.22;100203.28;7391455;19;20373;-60
2023/12/23 07:25:22;;;;;;;6.25;1.13;;;;;;;5.75;83.44;100204.41;7391854;19;20027;-60
2023/12/23 07:27:50;;;;;;;9.13;1.10;;;;;;;5.81;83.73;100204.03;7389861;19;20106;-60
2023/12/23 07:30:18;;;;;;;7.75;1.23;;;;;;;5.88;82.97;100202.72;7389300;19;20019;-61
2023/12/23 07:32:46;;;;;;;5.68;1.00;;;;;;;5.84;83.03;100202.06;7389094;19;20035;-61
2023/12/23 07:35:14;;;;;;;6.22;1.17;;;;;;;5.86;83.21;100200.16;7391090;19;20042;-60
2023/12/23 07:37:46;;;;;;;4.65;1.05;;;;;;;5.90;83.02;100192.94;7390937;19;20131;-61
2023/12/23 07:40:14;;;;;;;3.55;0.80;;;;;;;5.84;83.17;100188.94;7388272;19;20391;-59
2023/12/23 07:42:42;;;;;;;3.75;0.80;;;;;;;5.83;83.31;100196.88;7390348;19;20018;-61
2023/12/23 07:45:10;;;;;;;2.20;0.77;;;;;;;5.86;83.24;100202.78;7390250;19;20534;-59
2023/12/23 07:47:38;;;;;;;4.47;0.70;;;;;;;5.87;83.21;100193.13;7388676;19;20010;-61
2023/12/23 07:50:06;;;;;;;1.90;0.63;;;;;;;5.88;83.01;100189.56;7388511;19;20018;-60
2023/12/23 07:52:34;;;;;;;1.48;0.75;;;;;;;5.89;82.69;100191.25;7390188;19;20474;-61
2023/12/23 07:55:02;;;;;;;3.55;0.60;;;;;;;5.83;83.06;100197.72;7390298;19;20022;-60
2023/12/23 07:57:30;;;;;;;2.45;0.70;;;;;;;5.84;83.34;100193.34;7390291;19;20018;-60
2023/12/23 07:59:58;;;;;;;3.55;0.70;;;;;;;5.90;83.36;100198.19;7387201;19;20362;-59
2023/12/23 08:02:26;;;;;;;2.33;0.68;;;;;;;5.87;83.19;100201.84;7390338;19;20086;-60
2023/12/23 08:04:55;;;;;;;4.47;1.00;;;;;;;5.78;83.28;100194.56;7390298;19;20019;-61
2023/12/23 08:07:23;;;;;;;1.73;0.55;;;;;;;5.89;83.10;100196.50;7389460;19;20015;-60
2023/12/23 08:09:51;;;;;;;2.17;0.50;;;;;;;5.85;83.10;100210.78;7390459;19;20018;-59
2023/12/23 08:12:18;;;;;;;2.40;0.75;;;;;;;5.81;83.21;100212.75;7389547;19;20014;-60
2023/12/23 08:14:46;;;;;;;1.27;0.50;;;;;;;5.84;83.50;100212.56;7389754;19;20038;-60
2023/12/23 08:17:14;;;;;;;2.03;0.65;;;;;;;5.85;83.11;100209.00;7392752;19;20473;-60
2023/12/23 08:19:42;;;;;;;4.65;1.10;;;;;;;5.88;83.22;100207.97;7387591;19;20019;-61
2023/12/23 08:22:10;;;;;;;2.70;1.20;;;;;;;5.87;83.28;100199.22;7389276;19;20367;-61
2023/12/23 08:24:38;;;;;;;5.30;1.00;;;;;;;5.90;82.92;100210.50;7389399;19;20023;-61
2023/12/23 08:27:06;;;;;;;4.82;1.70;;;;;;;5.89;83.20;100209.66;7388774;19;20522;-61
2023/12/23 08:29:34;;;;;;;5.95;1.63;;;;;;;5.84;83.08;100211.75;7386133;19;20042;-61
2023/12/23 08:32:03;;;;;;;5.20;1.15;;;;;;;5.85;83.37;100208.16;7395313;19;20014;-60
2023/12/23 08:34:31;;;;;;;3.20;0.80;;;;;;;5.90;83.13;100206.06;7396526;19;20022;-60
2023/12/23 08:36:59;;;;;;;3.65;0.82;;;;;;;5.95;82.81;100206.66;7396714;19;20044;-60
2023/12/23 08:39:27;;;;;;;5.50;1.00;;;;;;;5.97;83.09;100207.41;7392093;19;20015;-60
2023/12/23 08:41:55;;;;;;;5.35;1.00;;;;;;;5.86;83.29;100200.16;7396282;19;20050;-59
2023/12/23 08:44:23;;;;;;;4.53;0.98;;;;;;;5.98;83.04;100209.09;7395932;19;20498;-60
2023/12/23 08:46:50;;;;;;;4.20;1.20;;;;;;;5.99;82.84;100216.06;7395920;19;20019;-60
2023/12/23 08:49:18;;;;;;;4.40;1.20;;;;;;;6.03;82.87;100214.91;7394447;19;20130;-60
2023/12/23 08:51:46;;;;;;;2.63;0.90;;;;;;;6.06;82.59;100211.22;7396004;19;20018;-60
2023/12/23 08:54:14;;;;;;;5.05;1.25;;;;;;;6.05;82.39;100213.03;7394279;19;20022;-60
2023/12/23 08:56:42;;;;;;;5.32;1.35;;;;;;;6.04;82.42;100208.72;7396263;19;20214;-61
2023/12/23 08:59:10;;;;;;;5.15;1.80;;;;;;;6.00;82.78;100212.47;7393879;19;20021;-56
2023/12/23 09:01:38;;;;;;;5.78;1.70;;;;;;;6.10;82.77;100215.34;7396168;19;20094;-54
2023/12/23 09:04:06;;;;;;;6.05;1.80;;;;;;;6.12;82.56;100215.28;7396805;19;20028;-59
2023/12/23 09:06:33;;;;;;;5.43;1.63;;;;;;;6.13;82.35;100227.47;7396596;19;20010;-61
2023/12/23 09:09:01;;;;;;;6.57;2.20;;;;;;;6.04;82.63;100224.47;7393882;19;20026;-58
2023/12/23 09:11:29;;;;;;;6.63;2.30;;;;;;;6.12;82.34;100225.78;7394418;19;20022;-59
2023/12/23 09:13:58;;;;;;;6.25;2.25;;;;;;;6.12;82.30;100216.09;7393830;19;20015;-61
2023/12/23 09:16:26;;;;;;;5.13;1.80;;;;;;;6.21;82.21;100222.56;7395369;19;20019;-61
2023/12/23 09:18:53;;;;;;;8.10;2.13;;;;;;;6.24;81.97;100227.63;7392362;19;20023;-60
2023/12/23 09:21:21;;;;;;;6.97;1.60;;;;;;;6.20;82.22;100226.13;7395117;19;20735;-62
2023/12/23 09:23:49;;;;;;;8.10;1.77;;;;;;;6.21;82.39;100220.75;7394692;19;20015;-62
2023/12/23 09:26:17;;;;;;;5.28;1.60;;;;;;;6.22;82.41;100233.00;7395237;19;20018;-61
2023/12/23 09:28:45;;;;;;;6.40;1.33;;;;;;;6.20;82.37;100229.59;7391520;19;20018;-62
2023/12/23 09:31:13;;;;;;;6.72;1.42;;;;;;;6.24;82.43;100232.88;7394822;19;20021;-64
2023/12/23 09:33:41;;;;;;;4.22;0.90;;;;;;;6.19;82.26;100230.56;7394557;19;20018;-61
2023/12/23 09:36:09;;;;;;;4.43;0.90;;;;;;;6.23;82.23;100233.81;7394782;19;20024;-61
2023/12/23 09:38:37;;;;;;;3.17;0.88;;;;;;;6.31;81.75;100240.28;7393162;19;20400;-59
2023/12/23 09:41:05;;;;;;;3.95;0.93;;;;;;;6.24;81.85;100246.03;7394576;19;20029;-58
2023/12/23 09:43:33;;;;;;;4.97;1.50;;;;;;;6.23;82.11;100233.81;7394687;19;20370;-61
2023/12/23 09:46:03;;;;;;;4.10;1.30;;;;;;;6.25;81.86;100231.94;7394666;19;20022;-60
2023/12/23 09:48:31;;;;;;;5.15;1.17;;;;;;;6.29;82.13;100233.41;7392432;19;20078;-61
2023/12/23 09:50:59;;;;;;;4.50;1.40;;;;;;;6.37;81.95;100246.91;7392388;19;20023;-62
2023/12/23 09:53:35;;;;;;;4.05;1.40;;;;;;;6.43;81.53;100237.78;7394510;19;20011;-61
2023/12/23 09:56:04;;;;;;;5.30;1.80;;;;;;;6.39;81.83;100242.41;7394094;19;20023;-59
2023/12/23 09:58:33;;;;;;;5.40;1.90;;;;;;;6.40;81.55;100245.88;7392519;19;20014;-61
2023/12/23 10:01:01;;;;;;;5.72;1.70;;;;;;;6.37;81.67;100246.91;7391967;19;20510;-62
2023/12/23 10:03:29;;;;;;;4.38;1.60;;;;;;;6.36;81.71;100253.13;7392437;19;20022;-60
2023/12/23 10:06:00;;;;;;;3.90;1.70;;;;;;;6.39;81.47;100257.34;7393793;19;20547;-59
2023/12/23 10:08:29;;;;;;;3.55;1.38;;;;;;;6.47;81.59;100255.91;7390542;19;20022;-61
2023/12/23 10:10:57;;;;;;;5.97;1.70;;;;;;;6.56;81.51;100260.59;7392230;19;20025;-62
2023/12/23 10:13:25;;;;;;;4.57;1.40;;;;;;;6.53;81.26;100254.69;7393745;19;20043;-61
2023/12/23 10:15:53;;;;;;;5.70;1.50;;;;;;;6.47;81.10;100252.44;7393309;19;20007;-61
2023/12/23 10:18:21;;;;;;;3.45;1.30;;;;;;;6.51;81.46;100238.97;7392301;19;20018;-61
2023/12/23 10:20:49;;;;;;;3.65;1.30;;;;;;;6.56;81.17;100236.91;7393011;19;20347;-62
2023/12/23 10:23:17;;;;;;;4.70;1.15;;;;;;;6.54;81.46;100251.09;7391380;19;20337;-59
2023/12/23 10:25:45;;;;;;;2.08;1.40;;;;;;;6.55;81.63;100250.97;7392693;19;20411;-60
2023/12/23 10:28:15;;;;;;;4.13;1.58;;;;;;;6.53;81.28;100250.25;7392059;19;20497;-60
2023/12/23 10:30:48;;;;;;;3.75;1.50;;;;;;;6.45;81.23;100233.25;7392680;19;20020;-61
2023/12/23 10:33:17;;;;;;;4.05;1.80;;;;;;;6.55;81.01;100247.50;7390986;19;20495;-57
2023/12/23 10:35:48;;;;;;;3.72;1.70;;;;;;;6.54;81.09;100243.22;7392746;19;20027;-60
2023/12/23 10:38:22;;;;;;;3.55;1.40;;;;;;;6.61;80.96;100244.50;7392015;19;20384;-63
2023/12/23 10:41:01;;;;;;;2.50;1.10;;;;;;;6.55;81.22;100245.72;7392555;19;20019;-63
2023/12/23 10:43:32;;;;;;;4.45;1.48;;;;;;;6.53;81.41;100247.63;7391907;19;20487;-62
2023/12/23 10:46:03;;;;;;;5.78;2.03;;;;;;;6.53;81.66;100246.78;7391865;19;20038;-62
2023/12/23 10:48:32;;;;;;;5.68;1.98;;;;;;;6.57;81.16;100249.13;7391346;19;20521;-62
2023/12/23 10:51:02;;;;;;;3.97;1.90;;;;;;;6.63;81.28;100244.38;7393032;19;20130;-62
2023/12/23 10:53:31;;;;;;;5.72;2.20;;;;;;;6.57;81.25;100246.47;7389729;19;20064;-62
2023/12/23 10:55:59;;;;;;;4.88;1.90;;;;;;;6.56;81.44;100249.19;7390565;19;20030;-62
2023/12/23 10:58:27;;;;;;;6.28;2.63;;;;;;;6.56;81.46;100244.81;7390857;19;20718;-62
2023/12/23 11:00:56;;;;;;;5.40;2.22;;;;;;;6.55;81.18;100237.84;7391782;19;20014;-62
2023/12/23 11:03:25;;;;;;;5.88;2.50;;;;;;;6.53;81.06;100237.09;7392030;19;20014;-62
2023/12/23 11:05:55;;;;;;;6.10;2.22;;;;;;;6.43;81.17;100220.22;7391999;19;20093;-62
2023/12/23 11:08:25;;;;;;;6.25;1.92;;;;;;;6.62;80.64;100242.69;7389363;19;20360;-62
2023/12/23 11:10:53;;;;;;;2.80;1.70;;;;;;;6.64;80.54;100236.41;7392702;19;20026;-62
2023/12/23 11:13:21;;;;;;;4.53;1.50;;;;;;;6.73;80.97;100251.56;7392009;19;20482;-62
2023/12/23 11:15:49;;;;;;;4.43;1.85;;;;;;;6.67;80.72;100254.59;7392482;19;20029;-62
2023/12/23 11:18:17;;;;;;;5.03;1.92;;;;;;;6.66;80.90;100257.34;7391142;19;20110;-61
2023/12/23 11:20:47;;;;;;;3.58;1.35;;;;;;;6.64;80.92;100257.47;7391727;19;20094;-58
2023/12/23 11:23:33;;;;;;;3.60;1.15;;;;;;;6.70;80.81;100256.19;7392001;19;20368;-59
2023/12/23 11:26:03;;;;;;;3.97;1.67;;;;;;;6.65;81.15;100266.19;7391925;19;20022;-60
2023/12/23 11:28:36;;;;;;;3.55;1.30;;;;;;;6.69;81.11;100262.41;7390022;19;20025;-60
2023/12/23 11:31:05;;;;;;;2.40;1.27;;;;;;;6.64;81.28;100267.09;7391036;19;20043;-60
2023/12/23 11:33:37;;;;;;;3.83;1.60;;;;;;;6.73;80.99;100274.41;7391052;19;20609;-60
2023/12/23 11:36:05;;;;;;;4.38;1.98;;;;;;;6.68;81.00;100268.59;7391205;19;20050;-59